CheckWX is a tool to help pilots better visualize weather data.  It is not intended as a substitute for an official pre-flight weather briefing.

17:09:24 UTC

KGIF METAR
Winter Haven's Gilbert Airport
Winter Haven, Florida, USA
Current

1 hour ago

KGIF 211553Z AUTO 19006KT 10SM SCT033 BKN042 31/23 A3009 RMK AO2 SLP187 T03060233
Observed
Jul-21 @ 15:53 UTC
Wind
  • 190° at 6 KTS
Visibility
10 SM
Flight Rules
VFR
Cloud Levels
  • Scattered at 3,300' AGL
  • Broken at 4,200' AGL
Temperature
31°C / 88°F
Dewpoint
23°C / 73°F
Heat Index
36°C / 96°F
Humidity
62%
Altimeter
30.09" Hg
Pressure
1018.92 hPa
Previous

2 hours ago

KGIF 211453Z AUTO 14007KT 10SM FEW024 31/23 A3008 RMK AO2 SLP185 T03060233 58001
Observed
Jul-21 @ 14:53 UTC
Wind
  • 140° at 7 KTS
Visibility
10 SM
Flight Rules
VFR
Cloud Levels
  • Few at 2,400' AGL
Temperature
31°C / 88°F
Dewpoint
23°C / 73°F
Heat Index
36°C / 96°F
Humidity
62%
Altimeter
30.08" Hg
Pressure
1018.62 hPa
Previous

3 hours ago

KGIF 211353Z AUTO 11006KT 10SM FEW013 29/24 A3009 RMK AO2 SLP187 T02890239
Observed
Jul-21 @ 13:53 UTC
Wind
  • 110° at 6 KTS
Visibility
10 SM
Flight Rules
VFR
Cloud Levels
  • Few at 1,300' AGL
Temperature
29°C / 84°F
Dewpoint
24°C / 75°F
Heat Index
33°C / 92°F
Humidity
74%
Altimeter
30.09" Hg
Pressure
1018.92 hPa